Time;durP1;ratioP1;P1;durP2;ratioP2;P2;SDS_P1;SDS_P2;PMS_P1;PMS_P2;Temp;Humidity;BMP_temperature;BMP_pressure;BME280_temperature;BME280_humidity;BME280_pressure;Samples;Min_cycle;Max_cycle;Signal;HPM_P1;HPM_P2
2023/06/30 07:40:39;;;;;;;4.85;2.47;;;;;;;-145.79;49.96;77084.78;5418222;27;20194;-77
2023/06/30 07:46:24;;;;;;;2.55;1.67;;;;;;;-145.79;48.17;77076.31;5362562;27;20038;-76
2023/06/30 07:48:55;;;;;;;4.55;2.08;;;;;;;-145.79;47.99;77067.81;5389193;27;20418;-77
2023/06/30 07:51:26;;;;;;;5.38;1.77;;;;;;;-145.79;47.05;77084.78;5387544;27;20019;-78
2023/06/30 08:01:11;;;;;;;4.85;1.73;;;;;;;-145.79;46.86;77027.56;5386726;27;20035;-79
2023/06/30 08:03:43;;;;;;;2.85;1.60;;;;;;;-145.79;45.29;77031.78;5385424;27;20095;-77
2023/06/30 08:06:18;;;;;;;4.90;2.17;;;;;;;-145.79;46.80;77019.06;5386015;27;20030;-79
2023/06/30 08:08:50;;;;;;;3.92;1.70;;;;;;;-145.79;45.53;77019.06;6054732;22;20036;-80
2023/06/30 08:14:48;;;;;;;3.78;2.25;;;;;;;-145.79;46.64;76983.03;5305454;28;20079;-78
2023/06/30 08:17:53;;;;;;;3.30;1.90;;;;;;;-145.79;47.61;76949.13;5321150;28;20024;-78
2023/06/30 08:20:27;;;;;;;4.07;2.50;;;;;;;-145.79;46.23;76949.13;5321902;28;20032;-77
2023/06/30 08:22:59;;;;;;;6.20;1.90;;;;;;;-145.79;45.95;76970.31;5320622;28;20083;-76
2023/06/30 08:25:36;;;;;;;5.97;2.00;;;;;;;-145.79;44.55;76974.56;5321442;28;20028;-74
2023/06/30 08:28:08;;;;;;;7.25;2.35;;;;;;;-145.79;44.29;76966.09;5320373;28;20030;-77
2023/06/30 08:30:49;;;;;;;2.22;1.60;;;;;;;-145.79;44.56;76932.19;5320172;28;20379;-77
2023/06/30 08:33:38;;;;;;;5.65;1.85;;;;;;;-145.79;46.32;76894.03;5321409;28;20031;-80
2023/06/30 08:36:09;;;;;;;3.42;1.83;;;;;;;-145.79;44.81;76885.56;5320003;28;20110;-75
2023/06/30 08:38:41;;;;;;;3.45;1.58;;;;;;;-145.79;44.87;76894.03;5320186;28;20545;-78
2023/06/30 08:41:15;;;;;;;6.60;2.33;;;;;;;-145.79;44.67;76877.06;5320860;28;20024;-77
2023/06/30 08:43:48;;;;;;;3.70;1.80;;;;;;;-145.79;44.04;76877.06;5320042;28;20028;-75
2023/06/30 08:46:22;;;;;;;5.28;2.38;;;;;;;-145.79;44.17;76847.41;5320114;28;20057;-79
2023/06/30 08:48:54;;;;;;;5.68;2.38;;;;;;;-145.79;44.01;76891.91;5320560;28;20089;-75
2023/06/30 08:51:25;;;;;;;4.45;1.95;;;;;;;-145.79;44.58;76864.34;5308908;28;20028;-76
2023/06/30 08:53:57;;;;;;;5.53;1.98;;;;;;;-145.79;43.62;76860.13;5306678;28;20051;-75
2023/06/30 08:56:31;;;;;;;6.13;2.08;;;;;;;-145.79;44.17;76855.88;5306218;28;20494;-76
2023/06/30 08:59:03;;;;;;;3.47;1.98;;;;;;;-145.79;43.11;76849.53;5304851;28;20036;-75
2023/06/30 09:01:36;;;;;;;4.82;2.10;;;;;;;-145.79;42.24;76858.00;5305749;28;20089;-78
2023/06/30 09:04:09;;;;;;;2.25;1.77;;;;;;;-145.79;42.51;76853.75;5306155;28;20023;-77
2023/06/30 09:06:49;;;;;;;3.90;1.90;;;;;;;-145.79;42.43;76838.94;5305772;28;20357;-78
2023/06/30 09:09:25;;;;;;;2.17;1.70;;;;;;;-145.79;41.70;76866.47;5306173;28;20040;-79
2023/06/30 09:11:57;;;;;;;5.05;1.70;;;;;;;-145.79;42.55;76826.22;5305952;28;20028;-79
2023/06/30 09:14:33;;;;;;;4.22;2.00;;;;;;;-145.79;42.42;76832.56;5305413;28;20498;-75
2023/06/30 09:17:05;;;;;;;20.15;18.27;;;;;;;-145.79;42.98;76832.56;5305053;28;20032;-75
2023/06/30 09:19:41;;;;;;;14.32;12.63;;;;;;;-145.79;42.75;76834.69;5304388;28;20028;-76
2023/06/30 09:22:15;;;;;;;;;;;;;;;-145.79;43.13;76800.78;5306217;28;20016;-76
2023/06/30 09:27:44;;;;;;;4.28;2.38;;;;;;;-145.79;41.76;76809.25;5326676;22;20051;-76
2023/06/30 09:41:52;;;;;;;4.68;2.00;;;;;;;-145.79;41.49;76800.78;5281719;28;20059;-76
2023/06/30 09:45:05;;;;;;;4.28;1.98;;;;;;;-145.79;42.10;76760.50;5248860;28;20041;-76
2023/06/30 09:48:05;;;;;;;2.25;1.65;;;;;;;-145.79;41.37;76737.19;5237588;28;20559;-76
2023/06/30 09:50:44;;;;;;;6.10;4.07;;;;;;;-145.79;40.72;76754.16;5263258;28;20040;-76
2023/06/30 09:53:19;;;;;;;5.00;2.08;;;;;;;-145.79;40.53;76732.97;5262132;28;20064;-75
2023/06/30 09:55:51;;;;;;;;;;;;;;;-145.79;41.07;76730.84;5263409;28;20032;-74
2023/06/30 09:58:22;;;;;;;3.97;2.10;;;;;;;-145.79;40.53;76754.16;5263327;28;19913;-76
2023/06/30 10:00:54;;;;;;;3.63;1.70;;;;;;;-145.79;40.02;76773.22;5262923;28;20044;-77
2023/06/30 10:03:25;;;;;;;7.82;4.32;;;;;;;-145.79;40.18;76760.50;5261181;28;20255;-76
2023/06/30 10:06:00;;;;;;;3.45;1.80;;;;;;;-145.79;40.25;76754.16;5274342;28;20055;-75
2023/06/30 10:08:32;;;;;;;13.88;12.35;;;;;;;-145.79;40.08;76754.16;5282991;28;20103;-76
2023/06/30 10:11:04;;;;;;;4.28;2.55;;;;;;;-145.79;39.87;76747.78;5283729;28;20028;-75
2023/06/30 10:13:36;;;;;;;3.83;2.33;;;;;;;-145.79;40.70;76720.25;5268184;28;20503;-75
2023/06/30 10:16:08;;;;;;;3.75;2.20;;;;;;;-145.79;39.95;76735.06;5262113;28;20033;-76
2023/06/30 10:18:46;;;;;;;3.42;2.05;;;;;;;-145.79;39.50;76732.97;5280848;28;20055;-75
2023/06/30 10:21:17;;;;;;;3.97;1.95;;;;;;;-145.79;39.98;76690.56;5275683;28;20480;-75
2023/06/30 10:23:50;;;;;;;3.92;1.88;;;;;;;-145.79;39.64;76665.16;5262063;28;20120;-76
2023/06/30 10:26:22;;;;;;;3.90;2.00;;;;;;;-145.79;39.69;76641.84;5262685;28;20040;-77
2023/06/30 10:28:56;;;;;;;2.53;1.52;;;;;;;-145.79;39.97;76648.19;5263046;28;20515;-76
2023/06/30 10:31:32;;;;;;;4.43;2.50;;;;;;;-145.79;39.02;76652.44;5261725;28;20728;-76
2023/06/30 10:34:05;;;;;;;4.93;2.20;;;;;;;-145.79;38.97;76660.91;5434338;22;20075;-77
2023/06/30 10:36:41;;;;;;;2.78;1.98;;;;;;;-145.79;38.42;76673.63;5271612;28;20132;-73
2023/06/30 10:39:16;;;;;;;4.13;1.50;;;;;;;-145.79;38.25;76677.84;5262660;28;20037;-75
2023/06/30 10:41:49;;;;;;;5.20;1.52;;;;;;;-145.79;38.48;76660.91;5263619;28;20075;-76
2023/06/30 10:44:35;;;;;;;3.67;1.60;;;;;;;-145.79;38.51;76694.81;5364590;22;20514;-77
2023/06/30 10:47:06;;;;;;;2.72;1.50;;;;;;;-145.79;39.03;76671.50;5295029;28;20024;-76
2023/06/30 10:49:41;;;;;;;5.03;1.75;;;;;;;-145.79;38.40;76684.22;5303262;28;20022;-77
2023/06/30 10:52:27;;;;;;;2.58;1.63;;;;;;;-145.79;38.95;76656.66;5302774;28;20365;-76
2023/06/30 10:55:06;;;;;;;2.65;1.92;;;;;;;-145.79;39.02;76629.13;5303861;28;20047;-76
2023/06/30 10:57:39;;;;;;;6.18;2.22;;;;;;;-145.79;38.93;76601.56;5303573;28;20024;-76
2023/06/30 11:00:13;;;;;;;2.63;1.90;;;;;;;-145.79;38.64;76569.78;5304249;28;20024;-77
2023/06/30 11:02:58;;;;;;;2.83;2.10;;;;;;;-145.79;38.25;76576.13;5303675;28;20104;-76
2023/06/30 11:05:36;;;;;;;2.40;1.58;;;;;;;-145.79;37.90;76597.31;5282418;28;20297;-76
2023/06/30 11:08:24;;;;;;;3.13;1.67;;;;;;;-145.79;38.03;76580.38;5299510;28;20036;-76
2023/06/30 11:14:05;;;;;;;13.05;9.85;;;;;;;-145.79;37.89;76574.00;5302972;28;20028;-76
2023/06/30 11:17:04;;;;;;;4.10;1.98;;;;;;;-145.79;38.25;76571.91;5303449;28;20016;-76
2023/06/30 11:19:36;;;;;;;2.10;1.90;;;;;;;-145.79;38.25;76588.84;5302514;28;20024;-76
2023/06/30 11:22:27;;;;;;;5.38;1.75;;;;;;;-145.79;38.58;76565.53;5302847;28;20024;-77
2023/06/30 11:25:04;;;;;;;3.65;1.52;;;;;;;-145.79;38.55;76559.19;5303640;28;20378;-76
2023/06/30 11:27:45;;;;;;;5.38;2.08;;;;;;;-145.79;38.47;76563.41;5303196;28;20028;-77
2023/06/30 11:30:18;;;;;;;4.00;2.05;;;;;;;-145.79;39.23;76554.94;5303031;28;20081;-77
2023/06/30 11:32:58;;;;;;;4.15;2.72;;;;;;;-145.79;38.23;76571.91;5302477;28;20028;-76
2023/06/30 11:35:32;;;;;;;4.13;2.40;;;;;;;-145.79;38.30;76542.22;5303314;28;20058;-77
2023/06/30 11:38:08;;;;;;;4.00;2.28;;;;;;;-145.79;38.86;76538.00;5302944;28;20041;-77
2023/06/30 11:40:50;;;;;;;5.53;3.08;;;;;;;-145.79;38.49;76512.56;5289256;22;20508;-77
2023/06/30 11:43:22;;;;;;;3.45;2.20;;;;;;;-145.79;38.46;76491.38;5261227;28;20148;-76
2023/06/30 11:45:58;;;;;;;17.40;12.88;;;;;;;-145.79;38.61;76493.50;5261303;28;20104;-75
2023/06/30 11:48:37;;;;;;;4.35;2.55;;;;;;;-145.79;39.06;76489.25;5260640;28;20033;-75
2023/06/30 11:51:11;;;;;;;4.43;2.80;;;;;;;-145.79;38.51;76508.31;5259547;28;20043;-76
2023/06/30 11:53:46;;;;;;;4.60;3.03;;;;;;;-145.79;39.11;76508.31;5259000;28;20380;-74
2023/06/30 11:56:19;;;;;;;4.30;2.50;;;;;;;-145.79;38.75;76504.09;5239608;28;20022;-75
2023/06/30 11:58:52;;;;;;;3.22;2.38;;;;;;;-145.79;38.61;76485.00;5240608;28;20029;-78
2023/06/30 12:01:23;;;;;;;6.85;3.47;;;;;;;-145.79;38.86;76470.19;5253801;28;20032;-75
2023/06/30 12:06:30;;;;;;;4.32;3.50;;;;;;;-145.79;39.00;76457.47;5301360;28;20133;-74
2023/06/30 12:09:06;;;;;;;4.80;2.72;;;;;;;-145.79;38.98;76444.75;5302020;28;20036;-75
2023/06/30 12:14:16;;;;;;;4.68;3.13;;;;;;;-145.79;37.55;76444.75;5309859;22;20564;-75
2023/06/30 12:16:48;;;;;;;5.57;2.50;;;;;;;-145.79;38.30;76427.78;5302273;28;20464;-75
2023/06/30 12:19:25;;;;;;;6.15;3.83;;;;;;;-145.79;38.22;76440.50;5302655;28;20039;-77
2023/06/30 12:21:59;;;;;;;3.63;3.20;;;;;;;-145.79;38.59;76440.50;5301784;28;20062;-79
2023/06/30 12:24:37;;;;;;;3.92;3.25;;;;;;;-145.79;38.67;76457.47;5301851;28;20118;-76
2023/06/30 12:34:35;;;;;;;4.55;3.47;;;;;;;-145.79;38.11;76374.81;5285627;28;20029;-78
2023/06/30 12:37:08;;;;;;;6.95;5.10;;;;;;;-145.79;37.91;76396.00;5285137;28;20020;-77
2023/06/30 12:39:41;;;;;;;5.60;3.92;;;;;;;-145.79;37.98;76429.91;5285160;28;20032;-77
2023/06/30 12:42:13;;;;;;;7.78;5.30;;;;;;;-145.79;38.37;76402.38;5285831;28;20461;-77
2023/06/30 12:47:36;;;;;;;6.18;3.60;;;;;;;-145.79;37.94;76347.25;5305596;28;20434;-68
2023/06/30 12:50:08;;;;;;;9.80;4.28;;;;;;;-145.79;37.89;76345.16;5305654;28;20089;-69
2023/06/30 12:52:42;;;;;;;7.05;4.03;;;;;;;-145.79;37.74;76347.25;5306403;28;20035;-70
2023/06/30 12:55:14;;;;;;;8.43;3.85;;;;;;;-145.79;37.89;76381.16;5306082;28;20028;-69
2023/06/30 12:57:45;;;;;;;5.85;3.95;;;;;;;-145.79;38.02;76364.22;5305536;28;20027;-67
2023/06/30 13:00:17;;;;;;;5.28;3.55;;;;;;;-145.79;37.94;76364.22;5306175;28;20505;-67
2023/06/30 13:02:48;;;;;;;7.25;3.20;;;;;;;-145.79;38.09;76366.34;5306087;28;20410;-68
2023/06/30 13:05:20;;;;;;;6.57;3.22;;;;;;;-145.79;38.08;76357.84;5305247;28;20022;-67
2023/06/30 13:07:51;;;;;;;6.82;2.97;;;;;;;-145.79;37.94;76343.03;5305991;28;20099;-68
2023/06/30 13:10:22;;;;;;;5.60;3.85;;;;;;;-145.79;37.91;76343.03;5306022;28;20028;-67
2023/06/30 13:12:54;;;;;;;3.97;2.88;;;;;;;-145.79;37.94;76338.78;5304960;28;20070;-67
2023/06/30 13:15:29;;;;;;;6.80;2.88;;;;;;;-145.79;37.75;76353.63;5306190;28;20089;-69
2023/06/30 13:18:00;;;;;;;10.05;7.53;;;;;;;-145.79;37.69;76334.56;5305742;28;20073;-69
2023/06/30 13:20:32;;;;;;;33.47;30.38;;;;;;;-145.79;37.57;76330.31;5304507;28;20035;-67
2023/06/30 13:23:03;;;;;;;4.68;2.67;;;;;;;-145.79;37.32;76292.16;5305895;28;20099;-68
2023/06/30 13:25:34;;;;;;;5.95;3.08;;;;;;;-145.79;37.35;76292.16;5304728;28;20318;-67
2023/06/30 13:28:06;;;;;;;6.35;3.40;;;;;;;-145.79;37.00;76319.72;5305569;28;20020;-68
2023/06/30 13:30:37;;;;;;;3.70;2.72;;;;;;;-145.79;37.51;76304.88;5305250;28;20435;-68
2023/06/30 13:33:08;;;;;;;5.28;2.70;;;;;;;-145.79;37.55;76313.34;5304802;28;20103;-68
2023/06/30 13:35:40;;;;;;;5.70;2.30;;;;;;;-145.79;37.59;76311.25;5305427;28;20024;-68
2023/06/30 13:38:11;;;;;;;6.03;3.15;;;;;;;-145.79;37.87;76323.97;5305029;28;20051;-68
2023/06/30 13:40:42;;;;;;;6.45;2.95;;;;;;;-145.79;37.46;76353.63;5304256;28;20078;-68
2023/06/30 13:43:14;;;;;;;7.20;3.28;;;;;;;-145.79;38.04;76302.75;5305451;28;20031;-68
2023/06/30 13:45:45;;;;;;;4.20;3.75;;;;;;;-145.79;37.92;76262.50;5304868;28;20102;-68
2023/06/30 13:48:16;;;;;;;4.80;3.28;;;;;;;-145.79;37.00;76268.84;5304590;28;20463;-68
2023/06/30 13:50:48;;;;;;;15.15;13.82;;;;;;;-145.79;36.84;76279.47;5305067;28;20052;-68
2023/06/30 13:53:20;;;;;;;5.53;2.80;;;;;;;-145.79;37.24;76283.69;5304883;28;20024;-68
2023/06/30 13:55:52;;;;;;;3.50;2.22;;;;;;;-145.79;37.34;76266.75;5304227;28;20020;-69
2023/06/30 13:58:23;;;;;;;6.72;2.33;;;;;;;-145.79;36.88;76249.78;5304852;28;20024;-69
2023/06/30 14:00:54;;;;;;;7.38;6.63;;;;;;;-145.79;36.74;76205.28;5303766;28;20031;-69
2023/06/30 14:03:26;;;;;;;21.20;19.17;;;;;;;-145.79;36.01;76196.81;5304254;28;20103;-69
2023/06/30 14:05:57;;;;;;;6.63;5.22;;;;;;;-145.79;35.87;76177.75;5303940;28;20024;-69
2023/06/30 14:08:28;;;;;;;4.15;2.47;;;;;;;-145.79;35.90;76160.78;5303555;28;20085;-70
2023/06/30 14:11:00;;;;;;;4.05;2.22;;;;;;;-145.79;36.06;76139.59;5303478;28;20480;-71
2023/06/30 14:13:31;;;;;;;3.97;1.88;;;;;;;-145.79;35.54;76120.53;5304190;28;20043;-69
2023/06/30 14:16:03;;;;;;;2.55;2.22;;;;;;;-145.79;35.45;76116.28;5303540;28;20040;-70
2023/06/30 14:18:37;;;;;;;4.35;2.20;;;;;;;-145.79;35.44;76099.34;5303906;28;20028;-72
2023/06/30 14:21:08;;;;;;;4.90;2.23;;;;;;;-145.79;34.89;76105.69;5304318;28;20020;-70
2023/06/30 14:23:40;;;;;;;3.50;1.90;;;;;;;-145.79;34.93;76097.22;5303867;28;20399;-69
2023/06/30 14:26:11;;;;;;;3.13;2.00;;;;;;;-145.79;34.89;76101.47;5304403;28;20103;-69
2023/06/30 14:28:43;;;;;;;3.40;2.00;;;;;;;-145.79;34.87;76086.63;5303098;28;20024;-70
2023/06/30 14:31:14;;;;;;;3.70;1.80;;;;;;;-145.79;34.55;76076.03;5303987;28;20483;-69
2023/06/30 14:33:46;;;;;;;2.78;1.90;;;;;;;-145.79;34.91;76143.84;5304249;28;20036;-68
2023/06/30 14:36:17;;;;;;;6.43;3.65;;;;;;;-145.79;35.63;76165.03;5301406;28;20028;-68
2023/06/30 14:38:48;;;;;;;3.45;2.05;;;;;;;-145.79;35.51;76167.16;5303993;28;20439;-69
2023/06/30 14:41:20;;;;;;;3.50;2.10;;;;;;;-145.79;35.60;76186.22;5303943;28;20058;-68
2023/06/30 14:43:51;;;;;;;3.42;1.98;;;;;;;-145.79;35.58;76196.81;5303359;28;20471;-68
2023/06/30 14:46:23;;;;;;;3.90;1.90;;;;;;;-145.79;35.91;76186.22;5303793;28;20150;-68
2023/06/30 14:48:55;;;;;;;7.72;5.45;;;;;;;-145.79;35.94;76143.84;5303433;28;20031;-69
2023/06/30 14:51:26;;;;;;;3.53;1.88;;;;;;;-145.79;35.51;76120.53;5302540;28;20522;-68
2023/06/30 14:53:57;;;;;;;13.68;11.15;;;;;;;-145.79;35.61;76114.19;5303505;28;20062;-69
2023/06/30 14:56:29;;;;;;;4.80;2.22;;;;;;;-145.79;35.83;76105.69;5303518;28;20020;-69
2023/06/30 14:59:01;;;;;;;4.78;3.15;;;;;;;-145.79;35.62;76118.41;5303040;28;20032;-66
2023/06/30 15:01:32;;;;;;;8.27;4.03;;;;;;;-145.79;35.83;76148.06;5303423;28;20028;-66
2023/06/30 15:04:03;;;;;;;3.28;2.17;;;;;;;-145.79;35.87;76143.84;5303201;28;20157;-67
2023/06/30 15:06:35;;;;;;;5.95;2.20;;;;;;;-145.79;36.14;76118.41;5302783;28;20036;-66
2023/06/30 15:09:06;;;;;;;5.03;2.90;;;;;;;-145.79;36.40;76118.41;5302856;28;20028;-66
2023/06/30 15:11:37;;;;;;;5.55;2.53;;;;;;;-145.79;36.31;76118.41;5302883;28;20455;-67
2023/06/30 15:14:09;;;;;;;4.18;1.83;;;;;;;-145.79;36.38;76126.88;5303549;28;20032;-66
2023/06/30 15:16:40;;;;;;;4.80;1.90;;;;;;;-145.79;36.13;76124.78;5303449;28;20024;-66
2023/06/30 15:19:11;;;;;;;4.80;2.33;;;;;;;-145.79;35.78;76118.41;5302060;28;20028;-66
2023/06/30 15:21:45;;;;;;;5.13;2.47;;;;;;;-145.79;35.25;76118.41;5303452;28;20027;-66
2023/06/30 15:24:17;;;;;;;5.00;1.80;;;;;;;-145.79;35.50;76114.19;5302515;28;20428;-66
2023/06/30 15:26:48;;;;;;;3.33;1.90;;;;;;;-145.79;35.75;76112.06;5301657;28;20073;-66
2023/06/30 15:29:20;;;;;;;2.97;1.63;;;;;;;-145.79;35.40;76107.81;5301374;28;20483;-66
2023/06/30 15:31:51;;;;;;;4.22;1.80;;;;;;;-145.79;35.59;76109.94;5301157;28;20593;-67
2023/06/30 15:34:22;;;;;;;4.28;1.75;;;;;;;-145.79;35.54;76084.50;5302435;28;20032;-65
2023/06/30 15:36:54;;;;;;;3.60;1.60;;;;;;;-145.79;34.93;76101.47;5302885;28;20403;-66
2023/06/30 15:39:25;;;;;;;6.40;1.95;;;;;;;-145.79;35.07;76101.47;5302096;28;20035;-66
2023/06/30 15:41:56;;;;;;;3.45;1.83;;;;;;;-145.79;35.22;76092.97;5302970;28;20038;-66
2023/06/30 15:44:28;;;;;;;3.35;1.67;;;;;;;-145.79;35.35;76109.94;5302771;28;20530;-66
2023/06/30 15:47:00;;;;;;;4.30;2.85;;;;;;;-145.79;35.85;76105.69;5301598;28;20076;-66
2023/06/30 15:49:32;;;;;;;4.32;1.85;;;;;;;-145.79;35.98;76103.56;5303190;28;20032;-66
2023/06/30 15:52:04;;;;;;;3.00;1.85;;;;;;;-145.79;35.65;76118.41;5302957;28;20020;-65
2023/06/30 15:54:36;;;;;;;4.50;2.10;;;;;;;-145.79;35.86;76129.00;5302153;28;20030;-65
2023/06/30 15:57:07;;;;;;;4.50;1.70;;;;;;;-145.79;36.15;76126.88;5303212;28;20040;-66
2023/06/30 15:59:38;;;;;;;3.08;2.60;;;;;;;-145.79;36.07;76158.66;5302296;28;20028;-65
2023/06/30 16:02:09;;;;;;;5.22;2.75;;;;;;;-145.79;36.21;76154.44;5305761;28;20032;-65
2023/06/30 16:04:41;;;;;;;6.18;4.28;;;;;;;-145.79;36.55;76171.38;5307170;28;20016;-65
2023/06/30 16:07:12;;;;;;;4.22;1.92;;;;;;;-145.79;36.43;76175.63;5306314;28;20095;-66
2023/06/30 16:09:43;;;;;;;3.90;1.90;;;;;;;-145.79;36.57;76160.78;5306980;28;20032;-65
2023/06/30 16:12:15;;;;;;;5.65;2.15;;;;;;;-145.79;36.66;76160.78;5306684;28;20324;-67
2023/06/30 16:14:46;;;;;;;4.43;2.10;;;;;;;-145.79;36.87;76162.91;5306420;28;20016;-67
2023/06/30 16:17:18;;;;;;;4.68;2.00;;;;;;;-145.79;36.80;76148.06;5306502;28;20122;-66
2023/06/30 16:19:49;;;;;;;5.57;2.42;;;;;;;-145.79;36.91;76152.31;5306043;28;20030;-66
2023/06/30 16:22:20;;;;;;;2.78;1.75;;;;;;;-145.79;37.33;76154.44;5304747;28;20165;-65
2023/06/30 16:24:52;;;;;;;4.68;2.30;;;;;;;-145.79;37.02;76165.03;5306428;28;20020;-66
2023/06/30 16:27:23;;;;;;;5.15;2.05;;;;;;;-145.79;37.08;76156.56;5306478;28;20063;-66
2023/06/30 16:30:21;;;;;;;4.00;2.28;;;;;;;-145.79;37.20;76143.84;5305514;28;20104;-66
2023/06/30 16:32:54;;;;;;;7.63;2.50;;;;;;;-145.79;37.07;76152.31;5306136;28;20028;-66
2023/06/30 16:35:27;;;;;;;5.68;2.50;;;;;;;-145.79;37.43;76135.38;5305572;28;20375;-66
2023/06/30 16:37:58;;;;;;;4.68;2.03;;;;;;;-145.79;37.49;76141.72;5306286;28;20032;-67
2023/06/30 16:40:29;;;;;;;2.88;2.13;;;;;;;-145.79;37.59;76145.97;5305679;28;20028;-66
2023/06/30 16:43:01;;;;;;;3.65;2.13;;;;;;;-145.79;37.80;76181.97;5305688;28;20562;-66
2023/06/30 16:45:33;;;;;;;5.32;1.90;;;;;;;-145.79;38.12;76177.75;5305592;28;20044;-65
2023/06/30 16:48:04;;;;;;;3.25;2.38;;;;;;;-145.79;38.02;76179.88;5306287;28;20054;-65
2023/06/30 16:50:36;;;;;;;5.78;2.30;;;;;;;-145.79;38.49;76211.66;5305066;28;20024;-66
2023/06/30 16:53:07;;;;;;;4.90;2.40;;;;;;;-145.79;38.30;76181.97;5305957;28;20397;-67
